Have a Safe July 4th! 

Flight Track Log - Related Links

Times and Time Zones

All times are in EDT time to prevent confusion due to time zone crossing. See the CFS774 flight status page for this flight to view local times or setup timezone preferences in your user account.

Time Position Orientation Groundspeed Altitude Reporting Facility
EDT Latitude Longitude Course Direction KTS MPH feet Rate Location/Type
Sat 09:58:36 AM 35.0369 -106.6147 346° North 77 89 5,800  Level Albuquerque Center
Sat 09:59:06 AM 35.0497 -106.6269 322° Northwest 94 108 6,100 733 Climbing Albuquerque Center
Sat 10:00:06 AM 35.0733 -106.6519 319° Northwest 120 138 6,900 694 Climbing Albuquerque Center
Sat 10:01:07 AM 35.0972 -106.6794 317° Northwest 126 145 7,500 629 Climbing Albuquerque Center
Sat 10:02:10 AM 35.1219 -106.7094 315° West 123 142 8,200 581 Climbing Albuquerque Center
Sat 10:03:11 AM 35.1450 -106.7464 307° West 131 151 8,700 541 Climbing Albuquerque Center
Sat 10:04:00 AM 35.0793 -106.8304 346° North  Level FlightAware Approximate
Sat 10:04:12 AM 35.1700 -106.7817 311° West 136 157 9,300  Level Albuquerque Center
Sat 10:05:14 AM 35.1950 -106.8189 309° West 140 161 9,900 585 Climbing Albuquerque Center
Sat 10:06:15 AM 35.2269 -106.8653 310° West 146 168 10,500 541 Climbing Albuquerque Center
Sat 10:07:16 AM 35.2625 -106.8881 332° Northwest 147 169 11,000 492 Climbing Albuquerque Center
Sat 10:08:17 AM 35.2997 -106.8986 347° North 141 162 11,500 492 Climbing Albuquerque Center
Sat 10:09:18 AM 35.3381 -106.9136 342° North 143 165 12,000 246 Climbing Albuquerque Center
Sat 10:10:19 AM 35.3803 -106.9267 346° North 152 175 12,000  Level Albuquerque Center
Sat 10:11:21 AM 35.4267 -106.9411 346° North 166 191 12,000  Level Albuquerque Center
Sat 10:12:22 AM 35.4744 -106.9567 345° North 174 200 12,000  Level Albuquerque Center
Sat 10:13:23 AM 35.5225 -106.9686 349° North 175 201 12,000  Level Albuquerque Center
Sat 10:14:24 AM 35.5686 -106.9872 342° North 175 201 12,000  Level Albuquerque Center
Sat 10:15:26 AM 35.6153 -107.0056 342° North 176 203 12,000  Level Albuquerque Center
Sat 10:16:27 AM 35.6561 -107.0450 322° Northwest 183 211 12,000  Level Albuquerque Center
Sat 10:17:28 AM 35.7022 -107.0953 318° Northwest 184 212 12,000  Level Albuquerque Center
Sat 10:18:30 AM 35.7436 -107.1308 325° Northwest 182 209 12,000  Level Albuquerque Center
Sat 10:19:31 AM 35.7839 -107.1686 323° Northwest 182 209 12,000  Level Albuquerque Center
Sat 10:20:32 AM 35.8286 -107.2111 322° Northwest 184 212 12,000  Level Albuquerque Center
Sat 10:21:34 AM 35.8669 -107.2467 323° Northwest 181 208 12,000  Level Albuquerque Center
Sat 10:22:35 AM 35.9058 -107.2839 322° Northwest 184 212 12,000  Level Albuquerque Center
Sat 10:23:36 AM 35.9506 -107.3267 322° Northwest 182 209 12,000  Level Albuquerque Center
Sat 10:24:38 AM 35.9881 -107.3631 322° Northwest 180 207 12,000  Level Albuquerque Center
Sat 10:25:39 AM 36.0331 -107.4050 323° Northwest 180 207 12,000  Level Albuquerque Center
Sat 10:26:41 AM 36.0717 -107.4403 324° Northwest 181 208 12,000  Level Albuquerque Center
Sat 10:27:42 AM 36.1092 -107.4769 322° Northwest 180 207 12,000  Level Albuquerque Center
Sat 10:28:44 AM 36.1525 -107.5203 321° Northwest 180 207 12,000  Level Albuquerque Center
Sat 10:29:45 AM 36.1897 -107.5558 322° Northwest 178 205 12,000  Level Albuquerque Center
Sat 10:30:47 AM 36.2347 -107.5975 323° Northwest 179 206 12,000  Level Albuquerque Center
Sat 10:31:48 AM 36.2731 -107.6356 321° Northwest 182 209 12,000  Level Albuquerque Center
Sat 10:32:50 AM 36.3178 -107.6778 323° Northwest 182 209 12,000  Level Albuquerque Center
Sat 10:33:51 AM 36.3558 -107.7156 321° Northwest 183 211 12,000  Level Albuquerque Center
Sat 10:34:53 AM 36.3925 -107.7511 322° Northwest 178 205 12,000 -49 Level Albuquerque Center
Sat 10:35:54 AM 36.4317 -107.7956 318° Northwest 173 199 11,900 -298 Descending Albuquerque Center
Sat 10:36:54 AM 36.4647 -107.8408 312° West 181 208 11,400 -344 Descending Denver Center
Sat 10:37:56 AM 36.4994 -107.8894 312° West 191 220 11,200 -532 Descending Denver Center
Sat 10:38:58 AM 36.5378 -107.9461 310° West 190 219 10,300 -677 Descending Denver Center
Sat 10:40:00 AM 36.5747 -107.9953 313° West 195 224 9,800 -629 Descending Denver Center
Sat 10:41:02 AM 36.6158 -108.0533 311° West 199 229 9,000 -780 Descending Denver Center
Sat 10:42:03 AM 36.6506 -108.1044 310° West 200 230 8,200 -878 Descending Denver Center
Sat 10:43:05 AM 36.6914 -108.1636 311° West 201 231 7,200 -726 Descending Denver Center
Sat 10:44:07 AM 36.7267 -108.2106 313° West 199 229 6,700 -629 Descending Denver Center
Sat 10:45:09 AM 36.7381 -108.2494 290° West 143 165 5,900 -774 Descending Denver Center

Login

Don't have an account? Register now (free) for customized features, flight alerts, and more!